createdAt,value
2022-12-08T00:00:42.837Z,3.00
2022-12-08T00:03:11.160Z,2.90
2022-12-08T00:05:56.708Z,3.00
2022-12-08T00:08:43.994Z,3.00
2022-12-08T00:11:13.896Z,3.00
2022-12-08T00:13:42.233Z,3.00
2022-12-08T00:16:10.536Z,3.10
2022-12-08T00:18:39.316Z,3.10
2022-12-08T00:21:07.779Z,3.20
2022-12-08T00:23:37.584Z,3.20
2022-12-08T00:26:06.963Z,3.40
2022-12-08T00:28:38.268Z,3.40
2022-12-08T00:31:09.873Z,3.40
2022-12-08T00:33:38.452Z,3.40
2022-12-08T00:36:08.079Z,3.50
2022-12-08T00:38:40.529Z,3.50
2022-12-08T00:41:13.008Z,3.50
2022-12-08T00:43:41.424Z,3.60
2022-12-08T00:46:10.022Z,3.50
2022-12-08T00:48:38.279Z,3.60
2022-12-08T00:51:06.665Z,3.70
2022-12-08T00:54:01.817Z,3.60
2022-12-08T00:56:30.271Z,3.70
2022-12-08T00:58:59.900Z,3.70
2022-12-08T01:01:28.663Z,3.70
2022-12-08T01:03:56.975Z,3.70
2022-12-08T01:06:25.361Z,3.80
2022-12-08T01:08:53.621Z,3.80
2022-12-08T01:11:23.191Z,3.90
2022-12-08T01:14:16.607Z,3.90
2022-12-08T01:16:47.918Z,3.80
2022-12-08T01:19:17.713Z,3.90
2022-12-08T01:21:47.227Z,3.90
2022-12-08T01:24:20.484Z,3.90
2022-12-08T01:26:51.673Z,3.90
2022-12-08T01:29:20.204Z,3.90
2022-12-08T01:31:48.469Z,3.90
2022-12-08T01:34:16.716Z,3.90
2022-12-08T01:36:45.431Z,3.90
2022-12-08T01:39:17.259Z,3.90
2022-12-08T01:41:46.491Z,3.90
2022-12-08T01:44:54.000Z,3.90
2022-12-08T01:47:23.935Z,3.90
2022-12-08T01:49:52.250Z,3.90
2022-12-08T01:52:25.249Z,3.90
2022-12-08T01:54:57.243Z,3.90
2022-12-08T01:57:29.498Z,4.00
2022-12-08T02:00:03.344Z,3.90
2022-12-08T02:03:03.292Z,3.80
2022-12-08T02:05:34.398Z,3.70
2022-12-08T02:08:06.767Z,3.70
2022-12-08T02:10:37.427Z,3.60
2022-12-08T02:13:07.611Z,3.50
2022-12-08T02:15:45.254Z,3.50
2022-12-08T02:18:28.182Z,3.40
2022-12-08T02:21:02.510Z,3.30
2022-12-08T02:23:41.314Z,3.40
2022-12-08T02:26:41.529Z,3.50
2022-12-08T02:29:41.690Z,3.60
2022-12-08T02:32:59.526Z,3.70
2022-12-08T02:35:35.363Z,3.80
2022-12-08T02:38:15.862Z,3.80
2022-12-08T02:40:50.932Z,3.80
2022-12-08T02:43:26.359Z,3.70
2022-12-08T02:46:00.311Z,3.60
2022-12-08T02:48:29.505Z,3.60
2022-12-08T02:50:59.096Z,3.60
2022-12-08T02:53:29.283Z,3.50
2022-12-08T02:56:04.526Z,3.50
2022-12-08T02:58:52.097Z,3.50
2022-12-08T03:01:40.880Z,3.50
2022-12-08T03:04:17.933Z,3.50
2022-12-08T03:06:57.405Z,3.50
2022-12-08T03:09:31.684Z,3.40
2022-12-08T03:12:11.660Z,3.40
2022-12-08T03:14:45.176Z,3.30
2022-12-08T03:17:15.539Z,3.40
2022-12-08T03:19:46.992Z,3.40
2022-12-08T03:22:19.495Z,3.30
2022-12-08T03:24:48.458Z,3.30
2022-12-08T03:27:19.245Z,3.30
2022-12-08T03:29:48.216Z,3.40
2022-12-08T03:33:07.193Z,3.40
2022-12-08T03:35:38.476Z,3.40
2022-12-08T03:38:10.774Z,3.40
2022-12-08T03:40:40.067Z,3.40
2022-12-08T03:43:08.664Z,3.40
2022-12-08T03:45:38.249Z,3.40
2022-12-08T03:48:06.798Z,3.40
2022-12-08T03:50:35.080Z,3.30
2022-12-08T03:53:03.319Z,3.30
2022-12-08T03:55:32.961Z,3.30
2022-12-08T03:58:01.674Z,3.30
2022-12-08T04:00:29.938Z,3.30
2022-12-08T04:02:59.043Z,3.30
2022-12-08T04:05:27.330Z,3.30
2022-12-08T04:07:58.545Z,3.40
2022-12-08T04:10:26.828Z,3.40
2022-12-08T04:12:58.102Z,3.40
2022-12-08T04:15:26.324Z,3.40
2022-12-08T04:17:54.494Z,3.40
2022-12-08T04:20:25.736Z,3.40
2022-12-08T04:23:19.651Z,3.40
2022-12-08T04:25:59.815Z,3.40
2022-12-08T04:28:29.995Z,3.40
2022-12-08T04:30:58.288Z,3.40
2022-12-08T04:33:26.587Z,3.40
2022-12-08T04:35:54.822Z,3.40
2022-12-08T04:38:23.451Z,3.50
2022-12-08T04:40:51.756Z,3.40
2022-12-08T04:43:20.012Z,3.40
2022-12-08T04:45:49.750Z,3.40
2022-12-08T04:48:18.302Z,3.50
2022-12-08T04:50:47.401Z,3.40
2022-12-08T04:53:16.265Z,3.40
2022-12-08T04:55:48.593Z,3.30
2022-12-08T04:58:19.515Z,3.40
2022-12-08T05:00:52.300Z,3.30
2022-12-08T05:03:26.869Z,3.30
2022-12-08T05:05:56.996Z,3.30
2022-12-08T05:08:25.450Z,3.30
2022-12-08T05:10:53.797Z,3.30
2022-12-08T05:13:22.042Z,3.20
2022-12-08T05:15:51.699Z,3.30
2022-12-08T05:18:19.989Z,3.20
2022-12-08T05:20:48.322Z,3.20
2022-12-08T05:23:16.621Z,3.20
2022-12-08T05:25:44.834Z,3.20
2022-12-08T05:28:40.138Z,3.20
2022-12-08T05:31:02.793Z,3.10
2022-12-08T05:33:31.097Z,3.10
2022-12-08T05:35:59.448Z,3.00
2022-12-08T05:38:27.766Z,3.00
2022-12-08T05:40:56.114Z,3.00
2022-12-08T05:43:24.500Z,3.00
2022-12-08T05:45:52.805Z,3.00
2022-12-08T05:48:22.411Z,3.00
2022-12-08T05:50:51.589Z,2.90
2022-12-08T05:53:21.647Z,2.90
2022-12-08T05:55:49.927Z,2.90
2022-12-08T05:58:19.650Z,2.90
2022-12-08T06:00:48.796Z,3.00
2022-12-08T06:03:18.744Z,3.00
2022-12-08T06:05:48.896Z,3.00
2022-12-08T06:08:17.719Z,3.00
2022-12-08T06:10:46.599Z,3.00
2022-12-08T06:13:14.968Z,3.10
2022-12-08T06:15:47.487Z,3.30
2022-12-08T06:18:16.109Z,3.60
2022-12-08T06:20:44.373Z,3.60
2022-12-08T06:23:13.992Z,3.70
2022-12-08T06:25:42.277Z,3.80
2022-12-08T06:28:10.512Z,4.00
2022-12-08T06:30:39.314Z,4.10
2022-12-08T06:33:07.563Z,4.40
2022-12-08T06:35:35.771Z,4.80
2022-12-08T06:38:04.028Z,5.10
2022-12-08T06:40:33.626Z,4.90
2022-12-08T06:43:01.927Z,4.70
2022-12-08T06:45:30.232Z,4.70
2022-12-08T06:47:58.497Z,5.30
2022-12-08T06:50:26.889Z,6.00
2022-12-08T06:53:04.507Z,6.80
2022-12-08T06:58:52.382Z,7.60
2022-12-08T07:01:21.100Z,7.50
2022-12-08T07:03:49.386Z,7.30
2022-12-08T07:06:21.830Z,7.10
2022-12-08T07:08:50.094Z,6.70
2022-12-08T07:11:22.230Z,6.50
2022-12-08T07:13:51.517Z,6.40
2022-12-08T07:16:19.888Z,6.20
2022-12-08T07:18:48.119Z,6.10
2022-12-08T07:21:17.034Z,5.90
2022-12-08T07:23:50.185Z,5.80
2022-12-08T07:26:33.744Z,5.70
2022-12-08T07:29:02.509Z,5.70
2022-12-08T07:31:30.824Z,5.70
2022-12-08T07:33:59.344Z,5.70
2022-12-08T07:36:27.691Z,5.80
2022-12-08T07:38:56.784Z,5.80
2022-12-08T07:41:26.850Z,5.90
2022-12-08T07:43:57.714Z,5.90
2022-12-08T07:46:27.067Z,6.00
2022-12-08T07:48:57.030Z,6.20
2022-12-08T07:51:26.025Z,6.40
2022-12-08T07:54:04.332Z,6.80
2022-12-08T07:56:32.573Z,7.10
2022-12-08T07:59:03.182Z,7.30
2022-12-08T08:01:33.255Z,7.40
2022-12-08T08:04:04.576Z,7.40
2022-12-08T08:06:33.585Z,7.60
2022-12-08T08:09:02.122Z,7.90
2022-12-08T08:11:30.379Z,8.10
2022-12-08T08:13:59.290Z,8.00
2022-12-08T08:16:33.477Z,7.90
2022-12-08T08:19:29.607Z,7.90
2022-12-08T08:21:57.812Z,7.80
2022-12-08T08:24:26.031Z,7.70
2022-12-08T08:26:55.384Z,7.70
2022-12-08T08:29:23.755Z,8.00
2022-12-08T08:31:53.356Z,8.30
2022-12-08T08:34:21.586Z,9.50
2022-12-08T08:36:49.855Z,11.10
2022-12-08T08:39:18.143Z,12.60
2022-12-08T08:41:50.132Z,13.90
2022-12-08T08:44:18.384Z,14.40
2022-12-08T08:46:46.626Z,14.70
2022-12-08T08:49:16.444Z,14.40
2022-12-08T08:51:44.647Z,14.40
2022-12-08T08:54:13.016Z,14.30
2022-12-08T08:56:41.252Z,13.40
2022-12-08T08:59:11.386Z,12.40
2022-12-08T09:01:39.642Z,11.40
2022-12-08T09:04:07.947Z,10.60
2022-12-08T09:06:38.014Z,10.10
2022-12-08T09:09:06.462Z,9.70
2022-12-08T09:11:34.818Z,9.40
2022-12-08T09:14:04.684Z,9.20
2022-12-08T09:16:37.492Z,9.30
2022-12-08T09:19:08.790Z,9.70
2022-12-08T09:21:38.390Z,10.10
2022-12-08T09:24:07.060Z,10.20
2022-12-08T09:26:35.475Z,10.30
2022-12-08T09:29:03.710Z,10.60
2022-12-08T09:31:32.103Z,10.80
2022-12-08T09:34:00.477Z,11.00
2022-12-08T09:36:28.676Z,11.20
2022-12-08T09:38:58.409Z,11.20
2022-12-08T09:41:38.926Z,11.10
2022-12-08T09:44:34.307Z,11.00
2022-12-08T09:47:05.316Z,10.90
2022-12-08T09:49:40.948Z,10.70
2022-12-08T09:52:19.983Z,10.40
2022-12-08T09:54:49.648Z,10.30
2022-12-08T09:57:21.877Z,10.20
2022-12-08T09:59:54.012Z,10.20
2022-12-08T10:02:48.340Z,10.10
2022-12-08T10:05:16.747Z,10.20
2022-12-08T10:08:11.817Z,10.40
2022-12-08T10:10:49.267Z,10.70
2022-12-08T10:13:23.054Z,10.90
2022-12-08T10:15:59.966Z,10.80
2022-12-08T10:18:31.509Z,10.80
2022-12-08T10:21:14.524Z,10.80
2022-12-08T10:23:46.719Z,10.50
2022-12-08T10:26:18.449Z,10.30
2022-12-08T10:28:47.439Z,10.10
2022-12-08T10:31:25.603Z,10.10
2022-12-08T10:33:59.234Z,10.20
2022-12-08T10:36:47.229Z,10.30
2022-12-08T10:39:34.438Z,10.50
2022-12-08T10:42:21.488Z,10.70
2022-12-08T10:44:58.932Z,10.90
2022-12-08T10:47:28.767Z,11.00
2022-12-08T10:50:19.807Z,11.00
2022-12-08T10:52:54.690Z,11.20
2022-12-08T10:55:23.390Z,11.30
2022-12-08T10:57:53.095Z,11.40
2022-12-08T11:00:49.210Z,11.30
2022-12-08T11:03:25.983Z,11.30
2022-12-08T11:05:57.805Z,11.30
2022-12-08T11:08:26.862Z,11.20
2022-12-08T11:10:55.166Z,11.20
2022-12-08T11:13:27.299Z,11.10
2022-12-08T11:15:56.745Z,11.10
2022-12-08T11:18:42.466Z,11.00
2022-12-08T11:21:14.167Z,11.00
2022-12-08T11:23:47.165Z,11.10
2022-12-08T11:26:24.849Z,11.30
2022-12-08T11:28:54.938Z,11.40
2022-12-08T11:31:30.271Z,11.30
2022-12-08T11:33:58.932Z,11.20
2022-12-08T11:36:30.202Z,11.00
2022-12-08T11:39:00.722Z,10.90
2022-12-08T11:41:32.385Z,10.90
2022-12-08T11:44:08.420Z,10.90
2022-12-08T11:46:44.839Z,10.90
2022-12-08T11:49:37.798Z,11.00
2022-12-08T11:52:13.341Z,11.00
2022-12-08T11:54:47.999Z,11.10
2022-12-08T11:57:20.632Z,11.00
2022-12-08T11:59:51.908Z,11.00
2022-12-08T12:02:23.333Z,11.00
2022-12-08T12:04:55.279Z,10.90
2022-12-08T12:07:47.888Z,10.90
2022-12-08T12:10:33.596Z,11.00
2022-12-08T12:13:37.329Z,11.00
2022-12-08T12:16:34.463Z,11.00
2022-12-08T12:19:06.163Z,10.90
2022-12-08T12:21:39.619Z,10.90
2022-12-08T12:24:16.938Z,10.90
2022-12-08T12:26:56.946Z,10.90
2022-12-08T12:29:33.399Z,10.90
2022-12-08T12:32:05.640Z,10.90
2022-12-08T12:34:37.025Z,11.00
2022-12-08T12:37:10.232Z,11.00
2022-12-08T12:39:50.115Z,11.00
2022-12-08T12:42:40.651Z,11.00
2022-12-08T12:45:25.398Z,10.90
2022-12-08T12:48:27.328Z,10.90
2022-12-08T12:50:56.968Z,10.90
2022-12-08T12:53:52.134Z,10.90
2022-12-08T12:56:50.711Z,10.80
2022-12-08T12:59:46.982Z,10.80
2022-12-08T13:02:24.960Z,10.80
2022-12-08T13:05:04.426Z,10.80
2022-12-08T13:07:35.527Z,10.80
2022-12-08T13:10:16.935Z,10.80
2022-12-08T13:12:46.361Z,10.80
2022-12-08T13:15:20.058Z,10.80
2022-12-08T13:17:50.281Z,10.80
2022-12-08T13:20:25.032Z,10.90
2022-12-08T13:23:12.053Z,10.90
2022-12-08T13:25:52.650Z,10.80
2022-12-08T13:28:28.680Z,10.80
2022-12-08T13:30:58.870Z,10.70
2022-12-08T13:33:33.766Z,10.70
2022-12-08T13:37:04.378Z,10.60
2022-12-08T13:39:57.850Z,10.60
2022-12-08T13:42:33.271Z,10.50
2022-12-08T13:48:26.611Z,10.40
2022-12-08T13:59:34.779Z,10.30
2022-12-08T14:02:29.593Z,10.20
2022-12-08T14:08:51.013Z,10.20
2022-12-08T14:11:33.526Z,10.20
2022-12-08T14:14:07.888Z,10.10
2022-12-08T14:16:40.358Z,10.10
2022-12-08T14:19:21.319Z,10.10
2022-12-08T14:21:54.689Z,10.10
2022-12-08T14:24:24.239Z,10.00
2022-12-08T14:26:56.446Z,10.00
2022-12-08T14:29:42.695Z,9.90
2022-12-08T14:32:26.221Z,9.90
2022-12-08T14:34:58.545Z,9.80
2022-12-08T14:37:28.885Z,9.80
2022-12-08T14:40:02.066Z,9.80
2022-12-08T14:42:32.295Z,9.80
2022-12-08T14:45:04.622Z,9.70
2022-12-08T14:47:36.113Z,9.70
2022-12-08T14:50:50.141Z,9.70
2022-12-08T14:53:19.410Z,9.70
2022-12-08T14:55:49.031Z,9.70
2022-12-08T14:58:27.737Z,9.60
2022-12-08T15:00:58.539Z,9.50
2022-12-08T15:03:30.103Z,9.50
2022-12-08T15:06:01.361Z,9.40
2022-12-08T15:08:29.806Z,9.30
2022-12-08T15:11:48.808Z,9.30
2022-12-08T15:14:43.226Z,9.20
2022-12-08T15:17:30.055Z,9.20
2022-12-08T15:19:59.409Z,9.20
2022-12-08T15:22:28.990Z,9.10
2022-12-08T15:24:58.485Z,9.00
2022-12-08T15:27:27.693Z,9.00
2022-12-08T15:29:57.282Z,8.90
2022-12-08T15:32:25.581Z,8.90
2022-12-08T15:34:53.805Z,8.90
2022-12-08T15:37:24.699Z,8.90
2022-12-08T15:39:53.305Z,8.80
2022-12-08T15:42:21.623Z,8.70
2022-12-08T15:44:50.092Z,8.70
2022-12-08T15:47:21.527Z,8.70
2022-12-08T15:49:52.562Z,8.60
2022-12-08T15:52:22.713Z,8.50
2022-12-08T15:54:51.370Z,8.40
2022-12-08T15:57:44.248Z,8.30
2022-12-08T16:09:12.291Z,7.90
2022-12-08T16:12:07.588Z,7.90
2022-12-08T16:17:26.172Z,7.80
2022-12-08T16:19:55.888Z,7.60
2022-12-08T16:25:19.988Z,7.40
2022-12-08T16:30:38.395Z,7.20
2022-12-08T16:33:06.766Z,7.20
2022-12-08T16:35:38.063Z,7.10
2022-12-08T16:38:06.518Z,7.00
2022-12-08T16:40:55.763Z,6.90
2022-12-08T16:43:23.137Z,6.90
2022-12-08T16:45:51.451Z,6.80
2022-12-08T16:48:20.701Z,6.80
2022-12-08T16:50:50.300Z,6.70
2022-12-08T16:53:18.703Z,6.60
2022-12-08T16:55:48.245Z,6.60
2022-12-08T16:58:18.408Z,6.50
2022-12-08T17:00:46.792Z,6.50
2022-12-08T17:03:16.919Z,6.50
2022-12-08T17:05:45.415Z,6.50
2022-12-08T17:08:15.184Z,6.40
2022-12-08T17:10:43.891Z,6.40
2022-12-08T17:13:13.082Z,6.40
2022-12-08T17:16:16.279Z,6.40
2022-12-08T17:18:45.614Z,6.50
2022-12-08T17:21:15.020Z,6.50
2022-12-08T17:23:44.988Z,6.60
2022-12-08T17:26:14.075Z,6.60
2022-12-08T17:31:32.443Z,6.50
2022-12-08T17:34:01.238Z,6.50
2022-12-08T17:36:29.631Z,6.60
2022-12-08T17:39:01.213Z,6.60
2022-12-08T17:41:30.110Z,6.60
2022-12-08T17:43:58.784Z,6.60
2022-12-08T17:46:27.522Z,6.60
2022-12-08T17:48:55.894Z,6.50
2022-12-08T17:51:24.139Z,6.60
2022-12-08T17:53:52.366Z,6.50
2022-12-08T17:56:22.948Z,6.50
2022-12-08T17:58:55.071Z,6.50
2022-12-08T18:01:24.259Z,6.50
2022-12-08T18:03:53.755Z,6.40
2022-12-08T18:06:24.643Z,6.50
2022-12-08T18:08:55.151Z,6.40
2022-12-08T18:11:25.448Z,6.50
2022-12-08T18:13:54.528Z,6.50
2022-12-08T18:16:25.027Z,6.50
2022-12-08T18:18:55.960Z,6.50
2022-12-08T18:21:24.283Z,6.50
2022-12-08T18:23:52.793Z,6.60
2022-12-08T18:26:21.593Z,6.70
2022-12-08T18:28:51.396Z,6.70
2022-12-08T18:31:22.651Z,6.70
2022-12-08T18:33:52.218Z,6.70
2022-12-08T18:36:23.378Z,6.70
2022-12-08T18:38:52.073Z,6.70
2022-12-08T18:41:24.503Z,6.70
2022-12-08T18:43:55.754Z,6.70
2022-12-08T18:46:25.295Z,6.70
2022-12-08T18:48:53.766Z,6.80
2022-12-08T18:51:24.622Z,6.80
2022-12-08T18:53:53.187Z,6.80
2022-12-08T18:56:26.335Z,6.90
2022-12-08T18:59:02.799Z,6.90
2022-12-08T19:01:32.829Z,6.90
2022-12-08T19:04:29.527Z,6.90
2022-12-08T19:06:58.788Z,7.00
2022-12-08T19:09:28.941Z,6.90
2022-12-08T19:11:57.702Z,7.00
2022-12-08T19:14:30.205Z,6.90
2022-12-08T19:16:58.893Z,7.00
2022-12-08T19:19:27.781Z,7.00
2022-12-08T19:21:56.200Z,7.00
2022-12-08T19:24:24.590Z,7.00
2022-12-08T19:26:53.872Z,7.00
2022-12-08T19:29:22.581Z,7.00
2022-12-08T19:31:52.298Z,7.00
2022-12-08T19:34:20.694Z,7.00
2022-12-08T19:36:49.125Z,7.00
2022-12-08T19:39:36.336Z,7.00
2022-12-08T19:42:23.161Z,6.90
2022-12-08T19:44:54.092Z,7.00
2022-12-08T19:47:25.431Z,6.90
2022-12-08T19:49:55.108Z,6.90
2022-12-08T19:52:23.624Z,7.00
2022-12-08T19:54:51.923Z,6.90
2022-12-08T19:57:20.533Z,7.00
2022-12-08T19:59:53.102Z,7.00
2022-12-08T20:02:26.487Z,7.00
2022-12-08T20:04:54.867Z,7.00
2022-12-08T20:07:23.248Z,7.00
2022-12-08T20:09:51.554Z,7.00
2022-12-08T20:12:19.832Z,7.00
2022-12-08T20:14:48.251Z,7.00
2022-12-08T20:17:16.511Z,7.00
2022-12-08T20:19:46.328Z,7.10
2022-12-08T20:22:14.663Z,7.10
2022-12-08T20:25:09.630Z,7.10
2022-12-08T20:27:37.527Z,7.20
2022-12-08T20:30:10.550Z,7.10
2022-12-08T20:32:41.697Z,7.00
2022-12-08T20:35:11.562Z,6.90
2022-12-08T20:37:39.847Z,6.90
2022-12-08T20:40:09.299Z,6.90
2022-12-08T20:42:37.742Z,6.80
2022-12-08T20:45:08.990Z,6.70
2022-12-08T20:47:37.754Z,6.70
2022-12-08T20:50:07.748Z,6.70
2022-12-08T20:52:38.943Z,6.70
2022-12-08T20:55:08.777Z,6.60
2022-12-08T20:57:37.112Z,6.70
2022-12-08T21:00:07.220Z,6.60
2022-12-08T21:02:36.024Z,6.60
2022-12-08T21:05:06.407Z,6.50
2022-12-08T21:07:35.127Z,6.50
2022-12-08T21:10:05.632Z,6.40
2022-12-08T21:12:34.393Z,6.40
2022-12-08T21:15:03.041Z,6.40
2022-12-08T21:17:31.463Z,6.40
2022-12-08T21:19:59.873Z,6.40
2022-12-08T21:22:28.299Z,6.40
2022-12-08T21:24:56.644Z,6.40
2022-12-08T21:27:26.314Z,6.30
2022-12-08T21:29:54.840Z,6.20
2022-12-08T21:32:28.638Z,6.20
2022-12-08T21:34:58.647Z,6.20
2022-12-08T21:37:27.103Z,6.10
2022-12-08T21:39:55.674Z,6.10
2022-12-08T21:42:42.849Z,6.10
2022-12-08T21:45:12.271Z,6.20
2022-12-08T21:47:40.890Z,6.10
2022-12-08T21:50:10.414Z,6.10
2022-12-08T21:52:40.110Z,6.10
2022-12-08T21:55:09.494Z,6.00
2022-12-08T21:57:39.233Z,6.00
2022-12-08T22:00:09.566Z,5.90
2022-12-08T22:02:38.326Z,5.90
2022-12-08T22:05:07.807Z,5.90
2022-12-08T22:07:39.621Z,5.90
2022-12-08T22:10:10.585Z,5.90
2022-12-08T22:12:40.878Z,5.80
2022-12-08T22:15:11.490Z,5.80
2022-12-08T22:17:41.142Z,5.80
2022-12-08T22:20:12.907Z,5.80
2022-12-08T22:22:41.803Z,5.70
2022-12-08T22:25:12.682Z,5.70
2022-12-08T22:27:43.097Z,5.60
2022-12-08T22:30:12.436Z,5.60
2022-12-08T22:32:41.873Z,5.60
2022-12-08T22:35:11.204Z,5.60
2022-12-08T22:37:39.520Z,5.60
2022-12-08T22:40:09.215Z,5.50
2022-12-08T22:42:38.008Z,5.50
2022-12-08T22:45:09.337Z,5.40
2022-12-08T22:47:37.856Z,5.40
2022-12-08T22:50:21.351Z,5.40
2022-12-08T22:52:49.561Z,5.40
2022-12-08T22:55:17.929Z,5.40
2022-12-08T22:57:46.169Z,5.30
2022-12-08T23:00:16.746Z,5.30
2022-12-08T23:02:45.140Z,5.20
2022-12-08T23:05:14.061Z,5.20
2022-12-08T23:07:42.946Z,5.10
2022-12-08T23:10:12.181Z,5.10
2022-12-08T23:12:40.603Z,5.00
2022-12-08T23:15:09.708Z,5.00
2022-12-08T23:17:39.531Z,5.00
2022-12-08T23:20:11.242Z,4.90
2022-12-08T23:22:39.988Z,4.90
2022-12-08T23:25:09.516Z,4.90
2022-12-08T23:28:02.909Z,4.90
2022-12-08T23:30:31.176Z,4.80
2022-12-08T23:33:00.898Z,4.90
2022-12-08T23:35:29.494Z,4.80
2022-12-08T23:37:57.716Z,4.80
2022-12-08T23:40:26.426Z,4.80
2022-12-08T23:42:54.847Z,4.80
2022-12-08T23:45:23.426Z,4.80
2022-12-08T23:47:51.962Z,4.70
2022-12-08T23:50:21.860Z,4.70
2022-12-08T23:52:50.136Z,4.70
2022-12-08T23:55:18.426Z,4.70
2022-12-08T23:57:46.784Z,4.70
